Terminal Aerodrome Forecast
Issued by NWS Chicago, IL

Home | Current Version | Previous Version | Graphics & Text | Print | Product List | Glossary On
Versions: 1 2 3 4 5 6 7 8 9 10 11 12 13 14 15 16 17 18 19 20 21 22 23 24 25 26
000
FTUS43 KLOT 171459 AAB
TAFRFD
TAF AMD
KRFD 171459Z 1715/1812 22012G20KT P6SM VCSH SCT012 BKN018 OVC035
      TEMPO 1715/1716 BKN012
     FM171700 25018G27KT P6SM SCT025 BKN050
     FM180100 27010KT P6SM BKN050=

USA.gov is the U.S. government's official web portal to all federal, state and local government web resources and services.